Armstrong Mills, Ohio
Current Conditions -  °F | °C
As of 7:53 PM on Saturday 22 Nov 2014 (Local Time) from KHLG Reporting Station
Broken Clouds Broken Clouds  
Wind Chill: 44°   Ceiling: 10000
Heat Index: 48°   Visibility: 10mi
Dew Point: 28°   Wind: 9mph
Humidity: 46%   Direction: 200°SSW
Pressure: 30.12"   Gusts: NA
Location:  39.9375°N, 80.8976°W
Report Text: KHLG 230053Z AUTO 20008KT 10SM FEW070 BKN100 09/M02 A3012 RMK AO2 SLP209 T00891022
Loading
Personal Weather Stations






























Interactive Weather Map New forecast layout! Learn more

10-Day Weather Forecast

Advertisements
Track Severe Weather on mobile